Terminal Aerodrome Forecast
Issued by NWS Rapid City, SD

Home | Current Version | Previous Version | Text Only | Print | Product List | Glossary Off
Versions: 1 2 3 4 5 6 7 8 9 10 11 12 13 14 15 16 17

000
FTUS43 KUNR 161721
TAFRAP
TAF
KRAP 161721Z 1618/1718 15009KT P6SM SCT150
     FM170200 25007KT P6SM BKN080
     FM171200 33020G30KT P6SM BKN050=

USA.gov is the U.S. government's official web portal to all federal, state and local government web resources and services.